utilisation pie
utilisation bar
humidity graph
temperature graph
Station id: aae83c for 3 days

start:   stop:  

day time in temp out temp in RH out RH H quota rule action
2021-04-15 00:16:25 9.0 0.3 52 75 79 t
1
2021-04-15 00:46:38 8.3 -0.1 51 76 84 t
1
2021-04-15 01:16:50 8.0 -0.5 52 76 82 t
1
2021-04-15 01:47:02 7.7 -0.8 51 78 84 t
1
2021-04-15 02:17:15 7.5 -1.1 50 79 87 t
1
2021-04-15 02:47:27 7.5 -1.4 51 79 84 t
1
2021-04-15 03:17:39 7.4 -1.6 50 80 85 t
1
2021-04-15 03:47:58 7.4 -1.8 50 80 84 t
1
2021-04-15 04:18:21 7.2 -1.9 48 80 88 g 0
2021-04-15 04:48:33 9.6 -2.1 46 81 78 g 0
2021-04-15 05:18:45 9.1 -2.2 48 81 77 g 0
2021-04-15 05:48:57 8.3 -2.3 51 82 78 t
1
2021-04-15 06:19:09 7.4 -2.4 50 82 82 t
1
2021-04-15 06:49:21 7.3 -2.0 50 83 87 t
1
2021-04-15 07:19:34 7.3 -0.9 50 83 94 h 0
2021-04-15 07:49:56 7.0 0.6 49 81 106 h 0
2021-04-15 08:20:12 7.9 2.1 49 78 108 h 0
2021-04-15 08:50:25 8.0 2.9 49 75 109 h 0
2021-04-15 09:20:37 8.0 4.4 49 71 113 h 0
2021-04-15 09:50:49 7.9 5.7 50 66 114 h 0
2021-04-15 10:21:01 8.0 6.8 50 61 113 h 0
2021-04-15 10:51:13 8.1 7.9 50 55 108 h 0
2021-04-15 11:21:26 8.2 8.8 50 51 105 h 0
2021-04-15 11:51:38 8.0 9.7 51 48 105 h 0
2021-04-15 12:21:50 8.0 10.4 51 47 107 h 0
2021-04-15 12:52:02 8.1 11.0 52 46 107 h 0
2021-04-15 13:22:15 8.2 11.8 51 44 108 h 0
2021-04-15 13:52:27 8.5 11.5 52 46 108 h 0
2021-04-15 14:22:39 8.5 11.2 52 47 107 h 0
2021-04-15 14:52:51 9.4 10.9 49 47 105 h 0
2021-04-15 15:23:04 10.0 10.9 48 47 104 h 0
2021-04-15 15:53:16 9.8 11.2 49 46 104 h 0
2021-04-15 16:23:28 9.5 11.0 50 46 102 h 0
2021-04-15 16:53:40 9.3 8.9 50 96 185 H 0
2021-04-15 17:23:42 10.0 10.9 45 44 104 h 0
2021-04-15 17:53:54 12.2 10.6 42 45 97 h 0
2021-04-15 18:24:06 12.8 9.9 42 48 95 h 0
2021-04-15 18:54:18 13.0 9.2 43 49 91 g 0
2021-04-15 19:24:31 14.2 8.5 40 49 84 g 0
2021-04-15 19:54:43 13.2 7.6 43 51 83 g 0
2021-04-15 20:24:55 13.1 6.7 44 52 79 g 0
2021-04-15 20:55:07 12.8 5.8 45 54 77 g 0
2021-04-15 21:25:19 12.6 4.7 46 57 75 g 0
2021-04-15 21:55:31 12.3 3.9 46 59 73 g 0
2021-04-15 22:25:44 13.6 3.2 43 61 71 g 0
2021-04-15 22:55:56 12.6 2.6 46 61 69 g 0
2021-04-15 23:26:08 12.1 2.0 47 63 68 g 0
2021-04-15 23:56:20 11.8 1.5 48 64 67 g 0
2021-04-16 00:26:32 11.4 1.3 48 66 70 g 0
2021-04-16 00:56:45 11.1 1.0 49 67 69 g 0
2021-04-16 01:26:57 12.5 0.8 45 67 68 g 0
2021-04-16 01:57:09 11.4 0.5 48 69 70 g 0
2021-04-16 02:27:21 10.7 0.2 50 70 70 g 0
2021-04-16 02:57:34 10.3 -0.1 51 71 70 t
1
2021-04-16 03:27:47 9.7 -0.3 46 72 80 g 0
2021-04-16 03:57:59 9.6 -0.4 50 73 74 g 0
2021-04-16 04:28:28 9.4 -0.6 51 74 74 t
1
2021-04-16 04:58:40 10.4 -0.7 46 76 78 g 0
2021-04-16 05:28:52 10.2 -0.7 47 77 79 g 0
2021-04-16 05:59:04 9.5 -0.7 49 78 80 g 0
2021-04-16 06:29:16 9.0 -0.4 50 78 82 t
1
2021-04-16 06:59:29 8.3 0.2 49 79 92 g 0
2021-04-16 07:29:41 8.4 1.3 51 79 97 h 0
2021-04-16 08:00:13 8.3 2.5 49 78 107 h 0
2021-04-16 08:30:25 8.0 3.3 51 76 109 h 0
2021-04-16 09:00:57 8.3 4.6 49 73 116 h 0
2021-04-16 09:31:10 7.9 5.8 51 70 120 h 0
2021-04-16 10:01:22 7.9 7.3 52 65 121 h 0
2021-04-16 10:31:34 7.9 8.8 52 60 123 h 0
2021-04-16 11:01:47 8.1 10.3 51 55 124 h 0
2021-04-16 11:31:59 8.1 11.3 51 50 120 h 0
2021-04-16 12:02:11 10.4 12.1 38 45 131 h 0
2021-04-16 12:32:23 11.5 12.9 39 42 119 h 0
2021-04-16 13:02:36 11.7 11.4 38 96 246 H 0
2021-04-16 13:32:37 11.4 13.3 41 42 115 h 0
2021-04-16 14:02:49 11.1 12.1 42 96 244 H 0
2021-04-16 14:32:50 12.5 11.5 39 96 231 H 0
2021-04-16 15:02:51 11.8 12.0 42 87 212 H 0
2021-04-16 15:32:52 11.4 11.7 43 87 205 H 0
2021-04-16 16:02:54 11.3 11.4 44 78 181 H 0
2021-04-16 16:32:55 13.3 11.4 33 71 195 H 0
2021-04-16 17:02:56 14.1 10.9 33 70 176 H 0
2021-04-16 17:32:57 14.5 10.9 35 73 167 H 0
2021-04-16 18:02:58 14.6 10.5 36 77 164 H 0
2021-04-16 18:32:59 15.5 9.8 33 86 181 H 0
2021-04-16 19:03:00 14.6 9.1 36 98 196 H 0
2021-04-16 19:33:01 14.4 9.9 37 45 92 g 0
2021-04-16 20:03:14 14.7 9.0 39 48 87 g 0
2021-04-16 20:33:26 14.9 8.2 38 48 84 g 0
2021-04-16 21:03:38 14.3 7.4 40 51 83 g 0
2021-04-16 21:33:51 14.0 6.8 41 53 83 g 0
2021-04-16 22:04:03 14.1 6.3 40 55 83 g 0
2021-04-16 22:34:15 14.3 5.9 40 58 85 g 0
2021-04-16 23:04:27 13.5 5.4 42 61 86 g 0
2021-04-16 23:34:39 13.0 5.0 43 64 88 g 0


2021-04-17 00:55:36 CEST